createdAt,value
2022-11-19T00:01:28.593Z,11.88
2022-11-19T00:03:56.355Z,11.90
2022-11-19T00:06:27.092Z,11.35
2022-11-19T00:08:55.180Z,11.77
2022-11-19T00:11:44.162Z,11.55
2022-11-19T00:14:14.724Z,7.35
2022-11-19T00:16:43.779Z,11.57
2022-11-19T00:19:11.790Z,11.63
2022-11-19T00:21:39.163Z,11.00
2022-11-19T00:24:07.071Z,9.93
2022-11-19T00:26:34.595Z,6.05
2022-11-19T00:29:01.762Z,10.40
2022-11-19T00:31:28.980Z,7.93
2022-11-19T00:33:56.020Z,9.18
2022-11-19T00:36:23.632Z,9.18
2022-11-19T00:38:51.196Z,9.32
2022-11-19T00:41:18.478Z,9.57
2022-11-19T00:43:48.618Z,10.00
2022-11-19T00:46:21.405Z,8.60
2022-11-19T00:48:51.055Z,8.68
2022-11-19T00:51:21.368Z,8.35
2022-11-19T00:53:48.602Z,7.95
2022-11-19T00:56:20.244Z,8.07
2022-11-19T00:58:48.650Z,7.43
2022-11-19T01:01:19.366Z,7.88
2022-11-19T01:03:46.706Z,7.32
2022-11-19T01:06:19.393Z,6.97
2022-11-19T01:08:52.617Z,6.43
2022-11-19T01:11:27.745Z,6.57
2022-11-19T01:13:55.288Z,6.60
2022-11-19T01:16:32.366Z,6.45
2022-11-19T01:19:00.545Z,7.90
2022-11-19T01:21:32.774Z,6.32
2022-11-19T01:24:00.730Z,6.13
2022-11-19T01:26:28.795Z,6.18
2022-11-19T01:28:56.735Z,6.03
2022-11-19T01:31:29.657Z,6.85
2022-11-19T01:33:57.096Z,6.43
2022-11-19T01:36:28.176Z,6.18
2022-11-19T01:38:56.536Z,6.75
2022-11-19T01:41:31.556Z,7.53
2022-11-19T01:44:05.966Z,6.70
2022-11-19T01:46:36.743Z,6.90
2022-11-19T01:49:15.228Z,6.20
2022-11-19T01:51:59.020Z,6.88
2022-11-19T01:54:30.090Z,7.43
2022-11-19T01:57:03.509Z,7.05
2022-11-19T01:59:32.158Z,3.55
2022-11-19T02:01:59.790Z,6.95
2022-11-19T02:04:27.908Z,6.85
2022-11-19T02:06:56.058Z,7.88
2022-11-19T02:09:24.800Z,8.15
2022-11-19T02:12:19.231Z,7.25
2022-11-19T02:15:06.426Z,7.13
2022-11-19T02:18:10.650Z,8.02
2022-11-19T02:21:26.819Z,7.30
2022-11-19T02:24:21.704Z,6.85
2022-11-19T02:27:06.829Z,7.13
2022-11-19T02:30:17.491Z,7.95
2022-11-19T02:33:13.807Z,7.50
2022-11-19T02:35:51.611Z,7.47
2022-11-19T02:38:29.485Z,7.55
2022-11-19T02:41:35.916Z,7.35
2022-11-19T02:44:43.865Z,6.40
2022-11-19T02:47:20.593Z,6.90
2022-11-19T02:49:49.743Z,7.45
2022-11-19T02:52:17.867Z,7.63
2022-11-19T02:54:45.984Z,6.70
2022-11-19T02:57:14.287Z,7.53
2022-11-19T03:00:15.762Z,3.88
2022-11-19T03:03:33.043Z,8.80
2022-11-19T03:06:07.733Z,8.05
2022-11-19T03:08:35.179Z,3.85
2022-11-19T03:11:20.534Z,5.93
2022-11-19T03:14:59.952Z,3.80
2022-11-19T03:17:54.325Z,6.95
2022-11-19T03:20:31.443Z,4.65
2022-11-19T03:23:20.378Z,3.88
2022-11-19T03:25:54.566Z,6.97
2022-11-19T03:28:29.323Z,3.55
2022-11-19T03:30:59.288Z,9.93
2022-11-19T03:33:36.506Z,7.95
2022-11-19T03:36:20.235Z,6.10
2022-11-19T03:38:55.241Z,6.90
2022-11-19T03:41:24.658Z,8.20
2022-11-19T03:44:00.790Z,5.72
2022-11-19T03:46:31.362Z,6.55
2022-11-19T03:49:00.166Z,8.45
2022-11-19T03:51:44.007Z,6.25
2022-11-19T03:54:11.369Z,8.05
2022-11-19T03:56:41.168Z,4.30
2022-11-19T03:59:11.379Z,7.30
2022-11-19T04:01:39.605Z,6.55
2022-11-19T04:04:25.565Z,6.68
2022-11-19T04:06:52.655Z,6.65
2022-11-19T04:09:19.986Z,6.55
2022-11-19T04:14:13.306Z,5.05
2022-11-19T04:16:40.347Z,6.93
2022-11-19T04:19:07.402Z,6.25
2022-11-19T04:21:34.415Z,6.47
2022-11-19T04:24:01.462Z,3.58
2022-11-19T04:26:28.691Z,6.22
2022-11-19T04:28:55.859Z,7.47
2022-11-19T04:31:23.043Z,6.90
2022-11-19T04:33:50.230Z,7.50
2022-11-19T04:36:17.333Z,6.22
2022-11-19T04:38:44.491Z,6.93
2022-11-19T04:41:11.612Z,7.18
2022-11-19T04:43:40.213Z,3.40
2022-11-19T04:46:07.585Z,3.25
2022-11-19T04:48:35.026Z,3.40
2022-11-19T04:51:02.205Z,6.80
2022-11-19T04:53:29.294Z,4.32
2022-11-19T04:55:56.403Z,6.88
2022-11-19T04:58:24.044Z,8.93
2022-11-19T05:00:51.262Z,6.57
2022-11-19T05:03:18.320Z,3.95
2022-11-19T05:05:45.494Z,7.07
2022-11-19T05:08:12.682Z,6.88
2022-11-19T05:10:39.892Z,7.47
2022-11-19T05:13:07.054Z,7.43
2022-11-19T05:15:34.342Z,7.43
2022-11-19T05:18:01.527Z,6.10
2022-11-19T05:20:28.794Z,7.63
2022-11-19T05:22:56.057Z,6.75
2022-11-19T05:25:23.253Z,7.55
2022-11-19T05:27:50.419Z,7.70
2022-11-19T05:30:17.668Z,3.60
2022-11-19T05:32:45.070Z,8.77
2022-11-19T05:35:12.259Z,7.72
2022-11-19T05:37:39.572Z,10.25
2022-11-19T05:40:07.963Z,3.90
2022-11-19T05:42:35.269Z,7.50
2022-11-19T05:45:02.415Z,4.60
2022-11-19T05:47:29.727Z,8.38
2022-11-19T05:49:56.818Z,4.85
2022-11-19T05:52:23.790Z,7.95
2022-11-19T05:54:50.850Z,7.95
2022-11-19T05:57:17.864Z,8.32
2022-11-19T05:59:45.093Z,8.60
2022-11-19T06:02:12.789Z,8.63
2022-11-19T06:04:39.900Z,9.98
2022-11-19T06:07:07.108Z,9.68
2022-11-19T06:09:34.312Z,9.40
2022-11-19T06:12:01.531Z,9.90
2022-11-19T06:14:28.766Z,6.13
2022-11-19T06:16:58.528Z,9.60
2022-11-19T06:19:26.490Z,9.43
2022-11-19T06:21:54.167Z,5.70
2022-11-19T06:24:21.295Z,10.55
2022-11-19T06:26:48.310Z,10.93
2022-11-19T06:29:17.698Z,6.10
2022-11-19T06:31:45.886Z,4.30
2022-11-19T06:34:12.993Z,8.13
2022-11-19T06:36:44.943Z,11.00
2022-11-19T06:39:14.938Z,11.45
2022-11-19T06:41:42.251Z,5.40
2022-11-19T06:44:09.460Z,12.32
2022-11-19T06:46:36.668Z,12.20
2022-11-19T06:49:05.834Z,6.50
2022-11-19T06:51:33.446Z,12.07
2022-11-19T06:54:00.568Z,12.52
2022-11-19T06:56:27.842Z,12.30
2022-11-19T06:58:58.598Z,12.35
2022-11-19T07:01:25.916Z,7.93
2022-11-19T07:03:53.359Z,12.80
2022-11-19T07:06:20.425Z,12.57
2022-11-19T07:08:47.436Z,12.75
2022-11-19T07:11:26.569Z,6.90
2022-11-19T07:13:57.721Z,8.13
2022-11-19T07:16:31.857Z,4.20
2022-11-19T07:19:01.112Z,12.60
2022-11-19T07:21:29.573Z,8.50
2022-11-19T07:23:58.536Z,9.32
2022-11-19T07:26:26.393Z,7.10
2022-11-19T07:28:53.712Z,6.47
2022-11-19T07:31:21.013Z,13.20
2022-11-19T07:33:48.412Z,13.30
2022-11-19T07:36:18.547Z,9.10
2022-11-19T07:38:47.137Z,13.27
2022-11-19T07:41:32.752Z,7.85
2022-11-19T07:43:59.889Z,12.80
2022-11-19T07:46:28.020Z,7.20
2022-11-19T07:48:57.208Z,13.25
2022-11-19T07:51:27.543Z,13.27
2022-11-19T07:53:57.744Z,13.45
2022-11-19T07:56:27.501Z,8.05
2022-11-19T07:58:54.578Z,13.82
2022-11-19T08:01:24.598Z,8.68
2022-11-19T08:03:56.286Z,13.57
2022-11-19T08:06:26.839Z,13.00
2022-11-19T08:08:56.229Z,13.07
2022-11-19T08:11:24.452Z,12.80
2022-11-19T08:13:52.468Z,12.80
2022-11-19T08:16:38.611Z,8.02
2022-11-19T08:19:14.112Z,12.88
2022-11-19T08:21:47.027Z,12.75
2022-11-19T08:24:18.743Z,12.63
2022-11-19T08:27:11.617Z,11.85
2022-11-19T08:29:39.004Z,12.80
2022-11-19T08:32:06.478Z,6.53
2022-11-19T08:34:34.329Z,13.00
2022-11-19T08:37:01.631Z,9.77
2022-11-19T08:39:29.480Z,12.82
2022-11-19T08:42:15.459Z,7.78
2022-11-19T08:44:42.896Z,12.73
2022-11-19T08:47:10.088Z,12.57
2022-11-19T08:49:37.245Z,12.15
2022-11-19T08:52:04.531Z,13.07
2022-11-19T08:54:32.466Z,11.75
2022-11-19T08:56:59.778Z,7.72
2022-11-19T08:59:27.895Z,12.85
2022-11-19T09:01:55.052Z,6.75
2022-11-19T09:04:22.700Z,22.35
2022-11-19T09:06:50.057Z,5.63
2022-11-19T09:09:17.870Z,12.52
2022-11-19T09:11:45.039Z,7.32
2022-11-19T09:14:12.221Z,12.40
2022-11-19T09:16:39.731Z,9.50
2022-11-19T09:19:07.079Z,11.05
2022-11-19T09:21:34.210Z,6.82
2022-11-19T09:24:06.182Z,11.05
2022-11-19T09:26:35.391Z,5.50
2022-11-19T09:29:02.900Z,11.77
2022-11-19T09:31:30.024Z,10.48
2022-11-19T09:33:57.157Z,6.78
2022-11-19T09:36:24.303Z,10.68
2022-11-19T09:38:56.565Z,11.27
2022-11-19T09:42:11.867Z,11.27
2022-11-19T09:45:06.322Z,11.13
2022-11-19T09:47:44.007Z,11.35
2022-11-19T09:50:23.110Z,11.13
2022-11-19T09:53:11.632Z,10.20
2022-11-19T09:55:45.116Z,11.00
2022-11-19T09:58:23.383Z,12.02
2022-11-19T10:00:50.940Z,10.85
2022-11-19T10:03:22.794Z,10.45
2022-11-19T10:06:25.984Z,6.78
2022-11-19T10:09:39.750Z,10.43
2022-11-19T10:12:36.198Z,6.45
2022-11-19T10:15:37.378Z,10.80
2022-11-19T10:18:08.894Z,9.60
2022-11-19T10:20:57.474Z,9.75
2022-11-19T10:23:34.282Z,9.70
2022-11-19T10:26:08.890Z,8.32
2022-11-19T10:28:39.807Z,9.00
2022-11-19T10:31:35.741Z,8.68
2022-11-19T10:34:31.342Z,8.60
2022-11-19T10:37:15.514Z,10.02
2022-11-19T10:40:14.904Z,8.88
2022-11-19T10:42:49.117Z,8.35
2022-11-19T10:45:20.535Z,7.97
2022-11-19T10:48:04.577Z,8.48
2022-11-19T10:50:35.272Z,9.68
2022-11-19T10:53:36.211Z,9.15
2022-11-19T10:56:26.243Z,7.95
2022-11-19T10:59:13.707Z,7.78
2022-11-19T11:01:44.776Z,7.95
2022-11-19T11:04:22.664Z,10.27
2022-11-19T11:06:55.896Z,7.50
2022-11-19T11:09:36.159Z,7.68
2022-11-19T11:12:44.695Z,7.18
2022-11-19T11:15:26.815Z,8.60
2022-11-19T11:18:05.045Z,7.60
2022-11-19T11:20:32.785Z,7.30
2022-11-19T11:23:15.098Z,7.60
2022-11-19T11:26:11.554Z,8.07
2022-11-19T11:29:08.790Z,7.60
2022-11-19T11:31:47.613Z,8.90
2022-11-19T11:34:43.210Z,7.05
2022-11-19T11:37:11.940Z,7.15
2022-11-19T11:39:44.324Z,7.10
2022-11-19T11:42:18.141Z,7.25
2022-11-19T11:44:56.343Z,7.07
2022-11-19T11:47:31.290Z,6.97
2022-11-19T11:50:17.138Z,7.15
2022-11-19T11:52:51.962Z,8.75
2022-11-19T11:55:27.335Z,7.20
2022-11-19T11:57:57.848Z,7.07
2022-11-19T12:00:44.620Z,6.55
2022-11-19T12:03:18.927Z,6.68
2022-11-19T12:06:17.323Z,7.55
2022-11-19T12:08:56.347Z,7.63
2022-11-19T12:11:54.374Z,6.78
2022-11-19T12:14:34.743Z,7.65
2022-11-19T12:17:18.913Z,6.82
2022-11-19T12:20:13.334Z,6.97
2022-11-19T12:23:17.048Z,6.75
2022-11-19T12:26:13.922Z,7.20
2022-11-19T12:31:41.097Z,8.43
2022-11-19T12:34:32.088Z,8.77
2022-11-19T12:37:39.496Z,7.53
2022-11-19T12:43:29.093Z,6.88
2022-11-19T12:46:07.732Z,6.88
2022-11-19T12:48:47.562Z,6.93
2022-11-19T12:51:52.280Z,6.90
2022-11-19T12:54:41.482Z,6.55
2022-11-19T12:57:49.065Z,6.85
2022-11-19T13:00:23.486Z,6.22
2022-11-19T13:03:15.019Z,8.20
2022-11-19T13:05:56.708Z,6.65
2022-11-19T13:08:38.910Z,6.80
2022-11-19T13:11:19.552Z,6.18
2022-11-19T13:14:01.083Z,6.72
2022-11-19T13:16:30.810Z,7.05
2022-11-19T13:19:18.703Z,6.13
2022-11-19T13:21:58.774Z,6.35
2022-11-19T13:24:39.587Z,6.25
2022-11-19T13:27:16.510Z,6.22
2022-11-19T13:30:02.768Z,6.70
2022-11-19T13:32:43.960Z,7.00
2022-11-19T13:35:20.860Z,6.95
2022-11-19T13:38:14.658Z,7.45
2022-11-19T13:41:04.618Z,7.07
2022-11-19T13:43:50.314Z,8.07
2022-11-19T13:46:32.703Z,6.47
2022-11-19T13:49:27.315Z,6.03
2022-11-19T13:52:02.003Z,6.63
2022-11-19T13:54:37.636Z,6.38
2022-11-19T13:57:07.613Z,7.50
2022-11-19T13:59:46.627Z,5.82
2022-11-19T14:02:50.463Z,7.65
2022-11-19T14:05:46.941Z,5.90
2022-11-19T14:08:44.088Z,5.70
2022-11-19T14:12:03.832Z,6.10
2022-11-19T14:15:23.558Z,6.40
2022-11-19T14:18:43.169Z,5.93
2022-11-19T14:21:47.332Z,6.45
2022-11-19T14:24:48.160Z,5.47
2022-11-19T14:27:31.351Z,5.50
2022-11-19T14:30:19.123Z,6.55
2022-11-19T14:32:50.421Z,5.95
2022-11-19T14:35:32.745Z,6.93
2022-11-19T14:38:20.256Z,7.20
2022-11-19T14:41:03.270Z,6.68
2022-11-19T14:43:48.719Z,7.00
2022-11-19T14:46:15.768Z,7.00
2022-11-19T14:48:42.760Z,6.97
2022-11-19T14:51:13.308Z,7.72
2022-11-19T14:54:04.054Z,6.88
2022-11-19T14:56:34.076Z,6.80
2022-11-19T14:59:06.922Z,7.20
2022-11-19T15:01:35.205Z,7.45
2022-11-19T15:04:10.118Z,7.20
2022-11-19T15:06:38.258Z,6.45
2022-11-19T15:09:06.119Z,7.47
2022-11-19T15:12:00.261Z,7.00
2022-11-19T15:14:38.513Z,7.43
2022-11-19T15:17:08.001Z,7.25
2022-11-19T15:20:30.552Z,6.88
2022-11-19T15:23:21.871Z,7.25
2022-11-19T15:26:07.506Z,6.88
2022-11-19T15:29:09.451Z,8.63
2022-11-19T15:32:10.535Z,8.13
2022-11-19T15:35:33.447Z,8.48
2022-11-19T15:38:22.607Z,8.10
2022-11-19T15:40:57.008Z,9.00
2022-11-19T15:43:49.118Z,7.97
2022-11-19T15:46:30.807Z,5.57
2022-11-19T15:49:19.133Z,8.63
2022-11-19T15:52:16.140Z,8.73
2022-11-19T15:54:44.952Z,7.65
2022-11-19T15:57:27.971Z,8.23
2022-11-19T16:00:00.837Z,8.50
2022-11-19T16:02:39.139Z,10.38
2022-11-19T16:05:07.549Z,8.15
2022-11-19T16:07:35.090Z,9.60
2022-11-19T16:10:30.005Z,9.68
2022-11-19T16:13:38.853Z,7.82
2022-11-19T16:16:47.646Z,6.30
2022-11-19T16:19:16.855Z,9.18
2022-11-19T16:21:49.294Z,8.75
2022-11-19T16:24:38.375Z,8.68
2022-11-19T16:27:12.822Z,11.82
2022-11-19T16:29:42.699Z,6.47
2022-11-19T16:32:17.022Z,10.82
2022-11-19T16:34:44.788Z,8.48
2022-11-19T16:37:17.853Z,9.13
2022-11-19T16:39:51.443Z,5.13
2022-11-19T16:42:26.659Z,10.80
2022-11-19T16:44:57.493Z,10.00
2022-11-19T16:47:51.418Z,7.13
2022-11-19T16:50:33.805Z,7.85
2022-11-19T16:53:03.068Z,5.85
2022-11-19T16:55:35.713Z,10.82
2022-11-19T16:58:25.396Z,10.63
2022-11-19T17:00:55.793Z,7.95
2022-11-19T17:03:23.736Z,10.85
2022-11-19T17:05:52.784Z,11.55
2022-11-19T17:08:36.789Z,14.85
2022-11-19T17:11:38.995Z,11.18
2022-11-19T17:14:31.053Z,5.80
2022-11-19T17:16:58.310Z,12.02
2022-11-19T17:19:36.316Z,12.05
2022-11-19T17:22:17.664Z,6.30
2022-11-19T17:24:46.381Z,11.65
2022-11-19T17:27:35.639Z,6.70
2022-11-19T17:30:27.346Z,10.93
2022-11-19T17:32:58.170Z,11.43
2022-11-19T17:35:38.195Z,10.23
2022-11-19T17:38:13.374Z,10.60
2022-11-19T17:40:54.149Z,13.18
2022-11-19T17:43:51.803Z,5.05
2022-11-19T17:46:20.046Z,11.05
2022-11-19T17:48:49.085Z,12.68
2022-11-19T17:51:25.002Z,11.93
2022-11-19T17:53:56.567Z,14.13
2022-11-19T17:56:30.449Z,9.43
2022-11-19T17:58:59.613Z,15.10
2022-11-19T18:01:27.669Z,8.02
2022-11-19T18:03:55.053Z,16.67
2022-11-19T18:06:22.294Z,14.77
2022-11-19T18:08:49.424Z,14.35
2022-11-19T18:11:21.615Z,9.32
2022-11-19T18:13:52.712Z,12.13
2022-11-19T18:16:26.511Z,9.75
2022-11-19T18:18:54.137Z,13.43
2022-11-19T18:21:23.026Z,6.57
2022-11-19T18:23:51.904Z,13.80
2022-11-19T18:26:24.991Z,14.73
2022-11-19T18:28:58.765Z,12.70
2022-11-19T18:31:27.874Z,15.20
2022-11-19T18:33:56.265Z,14.75
2022-11-19T18:36:26.531Z,8.32
2022-11-19T18:38:55.551Z,10.02
2022-11-19T18:41:22.839Z,9.80
2022-11-19T18:44:08.877Z,7.28
2022-11-19T18:46:36.083Z,6.28
2022-11-19T18:49:03.208Z,8.68
2022-11-19T18:51:32.226Z,15.75
2022-11-19T18:53:59.702Z,16.80
2022-11-19T18:56:27.091Z,15.60
2022-11-19T18:58:54.388Z,7.28
2022-11-19T19:01:23.909Z,8.93
2022-11-19T19:03:52.433Z,10.15
2022-11-19T19:06:19.745Z,21.77
2022-11-19T19:08:46.914Z,24.75
2022-11-19T19:11:32.757Z,22.75
2022-11-19T19:14:00.225Z,26.45
2022-11-19T19:16:28.294Z,16.88
2022-11-19T19:18:56.011Z,30.98
2022-11-19T19:21:23.581Z,21.85
2022-11-19T19:23:50.843Z,20.85
2022-11-19T19:26:19.103Z,25.60
2022-11-19T19:28:52.296Z,14.63
2022-11-19T19:31:21.265Z,17.60
2022-11-19T19:33:49.136Z,30.05
2022-11-19T19:36:17.770Z,27.75
2022-11-19T19:38:45.719Z,14.63
2022-11-19T19:41:25.806Z,13.85
2022-11-19T19:43:54.788Z,17.50
2022-11-19T19:46:23.685Z,17.90
2022-11-19T19:48:55.897Z,32.17
2022-11-19T19:51:26.593Z,20.48
2022-11-19T19:53:54.989Z,30.23
2022-11-19T19:56:30.250Z,16.23
2022-11-19T19:58:59.062Z,28.30
2022-11-19T20:01:29.741Z,28.50
2022-11-19T20:04:11.508Z,27.15
2022-11-19T20:06:44.932Z,18.20
2022-11-19T20:09:12.429Z,30.55
2022-11-19T20:11:39.794Z,26.83
2022-11-19T20:14:07.487Z,25.88
2022-11-19T20:16:38.826Z,26.67
2022-11-19T20:19:07.415Z,15.65
2022-11-19T20:21:36.409Z,24.33
2022-11-19T20:24:10.393Z,10.93
2022-11-19T20:26:40.258Z,11.88
2022-11-19T20:29:11.368Z,12.05
2022-11-19T20:31:38.819Z,21.83
2022-11-19T20:34:06.693Z,22.05
2022-11-19T20:36:35.499Z,11.25
2022-11-19T20:39:04.927Z,11.65
2022-11-19T20:41:54.618Z,10.60
2022-11-19T20:44:23.470Z,16.52
2022-11-19T20:47:02.251Z,16.90
2022-11-19T20:49:40.439Z,10.55
2022-11-19T20:52:08.317Z,12.85
2022-11-19T20:54:35.727Z,22.23
2022-11-19T20:57:03.257Z,14.25
2022-11-19T20:59:30.975Z,29.30
2022-11-19T21:01:58.471Z,14.00
2022-11-19T21:04:28.556Z,13.25
2022-11-19T21:06:55.870Z,15.13
2022-11-19T21:09:23.345Z,15.88
2022-11-19T21:11:51.156Z,16.77
2022-11-19T21:14:18.310Z,29.77
2022-11-19T21:16:45.441Z,16.33
2022-11-19T21:19:13.420Z,20.45
2022-11-19T21:21:40.701Z,29.40
2022-11-19T21:24:08.406Z,27.67
2022-11-19T21:26:35.622Z,29.98
2022-11-19T21:29:03.136Z,25.17
2022-11-19T21:31:43.895Z,12.80
2022-11-19T21:34:23.178Z,18.88
2022-11-19T21:36:50.982Z,24.45
2022-11-19T21:39:19.765Z,19.83
2022-11-19T21:41:47.602Z,18.67
2022-11-19T21:44:20.826Z,22.30
2022-11-19T21:46:48.928Z,22.83
2022-11-19T21:49:16.095Z,24.48
2022-11-19T21:51:43.535Z,13.80
2022-11-19T21:54:10.683Z,24.60
2022-11-19T21:56:39.032Z,23.85
2022-11-19T21:59:07.233Z,23.20
2022-11-19T22:01:34.599Z,25.35
2022-11-19T22:04:02.060Z,24.42
2022-11-19T22:06:31.666Z,30.45
2022-11-19T22:08:58.891Z,22.42
2022-11-19T22:11:41.051Z,16.80
2022-11-19T22:14:09.647Z,32.10
2022-11-19T22:16:39.896Z,32.97
2022-11-19T22:19:07.495Z,30.27
2022-11-19T22:21:35.469Z,20.58
2022-11-19T22:24:02.917Z,26.25
2022-11-19T22:26:30.900Z,15.85
2022-11-19T22:28:58.310Z,33.85
2022-11-19T22:31:29.433Z,16.92
2022-11-19T22:33:56.559Z,22.45
2022-11-19T22:36:23.769Z,22.90
2022-11-19T22:38:51.946Z,20.13
2022-11-19T22:41:21.621Z,24.02
2022-11-19T22:43:49.357Z,23.98
2022-11-19T22:46:17.737Z,39.40
2022-11-19T22:48:44.868Z,21.25
2022-11-19T22:51:19.088Z,25.70
2022-11-19T22:53:46.651Z,20.63
2022-11-19T22:56:19.185Z,22.05
2022-11-19T22:58:46.662Z,24.52
2022-11-19T23:01:22.862Z,41.95
2022-11-19T23:03:50.640Z,24.67
2022-11-19T23:06:18.200Z,41.38
2022-11-19T23:08:46.297Z,25.90
2022-11-19T23:11:16.785Z,24.90
2022-11-19T23:13:45.038Z,43.60
2022-11-19T23:16:16.346Z,22.95
2022-11-19T23:18:53.150Z,40.30
2022-11-19T23:21:26.458Z,44.40
2022-11-19T23:23:55.153Z,43.58
2022-11-19T23:26:25.569Z,27.83
2022-11-19T23:28:53.675Z,23.75
2022-11-19T23:31:33.656Z,41.95
2022-11-19T23:34:00.737Z,25.15
2022-11-19T23:36:31.577Z,40.20
2022-11-19T23:38:59.950Z,45.60
2022-11-19T23:41:32.759Z,40.85
2022-11-19T23:44:00.141Z,40.08
2022-11-19T23:46:33.497Z,20.15
2022-11-19T23:49:01.843Z,46.13
2022-11-19T23:51:33.767Z,28.17
2022-11-19T23:54:01.366Z,19.52
2022-11-19T23:56:31.988Z,39.17
2022-11-19T23:59:01.721Z,36.38
